Decoded Metar for ZSPD (SHANGHAI/PUDONG in CHINA) (IATA:N/A) | Meteo·Mobile Aviation Weather
aviador You're here:

ZSPD Decoded Metar

SHANGHAI/PUDONG in CHINA
Report Time2020-02-23 10:00:00
UTC Time2020-02-23 10:25:16
Flight Rules vfr VFR
Wind140° at 12 kt
W.Decomp.*RWY 16: 11.6 kt HW 3.1 kt LCW
RWY 17: 10.9 kt HW 5.1 kt LCW
Visibility9999 m
Phenomena:N/A
Clouds:N/A
Expected CloudBase > 2,400 ft AGL from Temp-Dew spread
CeilingNone
Temp10°C (ISA -5)
Dew Point04°C (67% RH)
AAT4.4°C
QNH1027 hPa
Density Alt-945 ft
Elevation13 ft
Report Wrong Elevation
Raw Report
ZSPD 231000Z 14006MPS CAVOK 10/04 Q1027 NOSIG=

Extra information for ZSPD:More info

Metar Taf Metar & Taf Last 4 Metars F.Rules Stats Wind Profile Meteogram Temp Stats Airport Information Weather charts Add Link Nearby VenuesMetar ALERT Operation Metar Decoded Social comments